Ferme-Neuve, Canada
Current Conditions -  °F | °C
As of 9:00 AM on Tuesday 27 Jan 2015 (Local Time) from CYND Reporting Station
Broken Clouds Broken Clouds  
Wind Chill: -13°   Ceiling: 22000
Heat Index:   Visibility: 15mi
Dew Point: -9°   Wind: 12mph
Humidity: 56%   Direction: 360°N
Pressure: 30.14"   Gusts: NA
Location:  46.7°N, 75.45°W
Report Text: CYND 271400Z 36010KT 15SM BKN220 M16/M23 A3014 RMK CI7 SLP214
Loading
Personal Weather Stations






























Interactive Weather Map New forecast layout! Learn more

10-Day Weather Forecast

Advertisements
Track Severe Weather on mobile